Washington, DC (20585)

10:29 PM EDT on March 26, 2015 (GMT -0400)
H Street Corridor - NoMa | | Change Station
CLOSE
Current Station
Personal Weather Station
Location: Washington, DC
Elevation: 56 ft
Nearby Weather Stations

Elev 56 ft 38.90 °N, 77.00 °W | Updated 3 seconds ago

Heavy Rain
Heavy Rain
55.9 °F
Feels Like 55.9 °F
N
7.0
Wind Variable Wind from NE
Gusts 14.0 mph

Today
High -- | Low -- °F
--% Chance of Precip.
Yesterday
High -- | Low -- °F
Precip. -- in
7:02 AM 7:25 PM
Waxing Crescent, 48% visible
Pressure 29.73 in
Visibility 3.0 miles
Clouds Few 1500 ft
Mostly Cloudy 3600 ft
Overcast 4400 ft
Dew Point 50 °F
Humidity 82%
Rainfall in
Snow Depth Not available.
UV 0 out of 12
Pollen 8.10 out of 12
Air Quality Not available.
Flu Activity Not available.
SPECI KDCA 270222Z 34009KT 3SM +RA FEW015 BKN036 OVC044 14/11 A2973 RMK AO2 PK WND 34027/0207 TSB0158E17RAB0157 PRESRR P0008 $

More Conditions Fewer Conditions

Pressure 29.73 in
Visibility 3.0 miles
Clouds Few 1500 ft
Mostly Cloudy 3600 ft
Overcast 4400 ft
Dew Point 50 °F
Humidity 82%
Rainfall in
Snow Depth Not available.
UV 0 out of 12
Pollen 8.10 out of 12
Air Quality Not available.
Flu Activity Not available.
SPECI KDCA 270222Z 34009KT 3SM +RA FEW015 BKN036 OVC044 14/11 A2973 RMK AO2 PK WND 34027/0207 TSB0158E17RAB0157 PRESRR P0008 $

More Conditions Fewer Conditions

10-Day Weather Forecast

Almanac

Astronomy

Mar. 26, 2015 Rise Set
Actual Time
Civil Twilight
Nautical Twilight
Astronomical Twilight
Moon
Length of Visible Light
Length of Day
Tomorrow will be .
, % of the Moon is Illuminated

Today's Extremes

State Highs State Lows

Community

WunderPhotos

Upload Photos

1,808,688 photos uploaded!

WunderBlogs® & News

Nearby

Air Quality

  Air Quality AQ Index Pollutant
Not available.

Snow Depth

Station Depth Elevation

Earthquake Activity

City Distance Mag. Time & Date
Minimum magnitude displayed is 2.5.

Coastal Water Temperatures

Place Temperature

Stations

Nearby Weather Stations

Station Location Temp. Windchill Dew Point Humidity Wind Precip. Elev Updated Type